Ahmeek, Michigan
Current Conditions -  °F | °C
As of 11:09 PM on Thursday 20 Nov 2014 (Local Time) from KCMX Reporting Station
Light Snow Light Snow  
Wind Chill:   Ceiling: 1400
Heat Index: 14°   Visibility: 1.7mi
Dew Point:   Wind: 10mph
Humidity: 77%   Direction: 310°NW
Pressure: 30.07"   Gusts: NA
Location:  47.3°N, 88.4°W
Report Text: KCMX 210409Z AUTO 31009KT 1 3/4SM -SN BKN014 OVC023 M10/M13 A3007 RMK AO2 P0000 T11001133
Loading
Personal Weather Stations






























Interactive Weather Map New forecast layout! Learn more

10-Day Weather Forecast

Advertisements
Track Severe Weather on mobile